Time;durP1;ratioP1;P1;durP2;ratioP2;P2;SDS_P1;SDS_P2;PMS_P1;PMS_P2;Temp;Humidity;BMP_temperature;BMP_pressure;BME280_temperature;BME280_humidity;BME280_pressure;Samples;Min_cycle;Max_cycle;Signal;HPM_P1;HPM_P2
2023/05/24 00:00:56;;;;;;;1.97;1.17;;;23.00;79.90;;;;;;5092701;28;20450;-82
2023/05/24 00:03:23;;;;;;;1.83;1.03;;;23.10;80.30;;;;;;5092953;28;20443;-89
2023/05/24 00:05:51;;;;;;;1.20;0.97;;;23.00;79.70;;;;;;5092859;28;20543;-85
2023/05/24 00:08:18;;;;;;;1.10;0.80;;;23.10;79.90;;;;;;5093094;28;20451;-82
2023/05/24 00:10:45;;;;;;;1.20;0.90;;;23.10;79.70;;;;;;5092671;28;20439;-88
2023/05/24 00:13:12;;;;;;;1.53;0.80;;;23.00;79.80;;;;;;5092397;28;20860;-82
2023/05/24 00:15:38;;;;;;;1.20;1.03;;;23.00;80.00;;;;;;5092827;28;20828;-82
2023/05/24 00:18:05;;;;;;;1.20;1.07;;;23.00;80.50;;;;;;5092846;28;20829;-82
2023/05/24 00:20:32;;;;;;;1.40;1.03;;;23.00;80.20;;;;;;5094973;28;20446;-88
2023/05/24 00:23:00;;;;;;;1.27;1.07;;;23.00;80.30;;;;;;5096684;28;20439;-82
2023/05/24 00:25:27;;;;;;;1.43;0.90;;;23.00;80.20;;;;;;5096607;28;20461;-82
2023/05/24 00:27:54;;;;;;;1.77;1.00;;;23.00;80.20;;;;;;5096268;28;20451;-82
2023/05/24 00:30:21;;;;;;;1.67;1.10;;;23.00;80.60;;;;;;5096037;28;20466;-85
2023/05/24 00:32:47;;;;;;;1.50;1.03;;;23.00;80.00;;;;;;5096283;28;20444;-82
2023/05/24 00:35:14;;;;;;;1.20;0.90;;;23.00;80.00;;;;;;5096262;28;20443;-82
2023/05/24 00:37:43;;;;;;;1.10;0.80;;;23.00;80.00;;;;;;5096313;28;20443;-83
2023/05/24 00:40:12;;;;;;;1.23;1.10;;;23.00;80.60;;;;;;5096225;28;20439;-82
2023/05/24 00:42:40;;;;;;;1.30;1.00;;;23.00;79.80;;;;;;5096214;28;20435;-82
2023/05/24 00:45:08;;;;;;;1.10;0.80;;;23.00;80.20;;;;;;5096233;28;20833;-82
2023/05/24 00:47:34;;;;;;;1.30;1.00;;;23.00;80.00;;;;;;5095581;28;20445;-86
2023/05/24 00:50:02;;;;;;;1.33;1.00;;;23.00;80.00;;;;;;5095937;28;20452;-82
2023/05/24 00:52:29;;;;;;;1.40;1.10;;;23.00;80.00;;;;;;5095968;28;20936;-83
2023/05/24 00:54:56;;;;;;;1.97;1.00;;;23.00;80.30;;;;;;5096025;28;20490;-88
2023/05/24 00:57:24;;;;;;;1.37;0.90;;;23.00;79.90;;;;;;5095687;28;20567;-81
2023/05/24 00:59:52;;;;;;;1.10;0.90;;;23.00;79.90;;;;;;5095277;28;20482;-82
2023/05/24 01:02:19;;;;;;;1.47;0.90;;;23.00;80.10;;;;;;5095684;28;20890;-82
2023/05/24 01:04:47;;;;;;;1.07;0.73;;;22.90;80.10;;;;;;5095762;28;20453;-89
2023/05/24 01:07:22;;;;;;;2.03;1.23;;;23.10;80.30;;;;;;5095142;28;20462;-82
2023/05/24 01:10:03;;;;;;;1.67;1.20;;;23.10;79.60;;;;;;5095699;28;20836;-82
2023/05/24 01:12:45;;;;;;;2.47;0.90;;;23.00;80.20;;;;;;5095355;28;20478;-82
2023/05/24 01:15:22;;;;;;;1.10;0.93;;;23.00;79.90;;;;;;5095148;28;20439;-82
2023/05/24 01:18:00;;;;;;;1.97;1.20;;;22.90;79.70;;;;;;5095251;28;20485;-82
2023/05/24 01:20:30;;;;;;;2.03;1.00;;;22.90;79.50;;;;;;5095339;28;20519;-82
2023/05/24 01:23:14;;;;;;;1.10;0.90;;;22.90;79.10;;;;;;5095441;28;20436;-82
2023/05/24 01:25:53;;;;;;;1.10;0.90;;;22.90;79.70;;;;;;5095298;28;20435;-82
2023/05/24 01:28:22;;;;;;;1.10;0.83;;;22.90;79.80;;;;;;5095529;28;20439;-82
2023/05/24 01:30:49;;;;;;;1.60;1.03;;;22.90;79.50;;;;;;5095075;28;20450;-82
2023/05/24 01:33:16;;;;;;;1.90;1.00;;;23.00;80.00;;;;;;5095228;28;20453;-83
2023/05/24 01:35:43;;;;;;;1.30;1.00;;;22.90;79.40;;;;;;5095094;28;20432;-82
2023/05/24 01:38:10;;;;;;;1.23;0.90;;;22.90;79.70;;;;;;5095086;28;20444;-88
2023/05/24 01:40:39;;;;;;;1.40;1.00;;;22.90;79.70;;;;;;5095067;28;20431;-82
2023/05/24 01:43:15;;;;;;;2.03;1.00;;;22.90;79.90;;;;;;5094539;28;20523;-82
2023/05/24 01:45:53;;;;;;;1.20;1.00;;;22.90;80.10;;;;;;5094905;28;20914;-82
2023/05/24 01:48:31;;;;;;;1.50;1.07;;;22.90;79.70;;;;;;5094527;28;20435;-82
2023/05/24 01:50:59;;;;;;;1.37;0.97;;;23.00;80.00;;;;;;5094654;28;20439;-88
2023/05/24 01:53:31;;;;;;;1.20;0.90;;;22.90;80.00;;;;;;5094749;28;20431;-82
2023/05/24 01:56:00;;;;;;;1.50;0.90;;;23.10;80.00;;;;;;5094314;28;20525;-82
2023/05/24 01:58:29;;;;;;;1.83;0.90;;;22.90;80.10;;;;;;5094614;28;20447;-81
2023/05/24 02:00:58;;;;;;;1.30;0.90;;;23.00;80.20;;;;;;5094564;28;20785;-81
2023/05/24 02:03:25;;;;;;;1.00;0.90;;;22.80;79.20;;;;;;5094893;28;20564;-88
2023/05/24 02:05:52;;;;;;;1.30;0.90;;;22.80;80.00;;;;;;5094184;28;20442;-82
2023/05/24 02:08:20;;;;;;;1.30;1.00;;;22.80;79.90;;;;;;5094150;28;20828;-82
2023/05/24 02:10:46;;;;;;;1.13;0.90;;;22.80;79.50;;;;;;5094077;28;20537;-89
2023/05/24 02:13:15;;;;;;;1.00;0.70;;;22.80;79.80;;;;;;5094008;28;20477;-89
2023/05/24 02:15:42;;;;;;;1.20;1.00;;;22.80;79.80;;;;;;5094246;28;20509;-81
2023/05/24 02:18:10;;;;;;;1.47;0.90;;;22.90;80.40;;;;;;5094044;28;20447;-81
2023/05/24 02:20:37;;;;;;;1.10;1.00;;;22.80;80.00;;;;;;5094187;28;20482;-81
2023/05/24 02:23:04;;;;;;;1.10;0.87;;;22.80;79.70;;;;;;5094202;28;20435;-82
2023/05/24 02:25:31;;;;;;;1.20;1.10;;;22.80;79.40;;;;;;5094069;28;20436;-81
2023/05/24 02:27:58;;;;;;;1.30;1.00;;;22.80;79.00;;;;;;5094112;28;20439;-82
2023/05/24 02:30:25;;;;;;;1.23;1.03;;;22.80;79.10;;;;;;5093687;28;20461;-88
2023/05/24 02:32:51;;;;;;;1.20;0.83;;;22.80;79.30;;;;;;5094152;28;20439;-81
2023/05/24 02:35:20;;;;;;;1.10;0.80;;;22.80;79.00;;;;;;5093989;28;20442;-89
2023/05/24 02:37:47;;;;;;;1.30;0.90;;;22.80;79.00;;;;;;5093345;28;20822;-87
2023/05/24 02:40:14;;;;;;;1.10;0.80;;;22.80;78.80;;;;;;5093807;28;20439;-82
2023/05/24 02:42:40;;;;;;;1.40;1.03;;;22.80;78.80;;;;;;5093568;28;21003;-85
2023/05/24 02:45:08;;;;;;;1.10;0.87;;;22.70;79.00;;;;;;5093786;28;20519;-82
2023/05/24 02:47:35;;;;;;;1.47;1.00;;;22.70;79.10;;;;;;5093737;28;20770;-82
2023/05/24 02:50:02;;;;;;;1.10;0.80;;;22.70;78.90;;;;;;5093743;28;20436;-87
2023/05/24 02:52:30;;;;;;;1.20;0.80;;;22.70;78.50;;;;;;5093821;28;20443;-82
2023/05/24 02:54:57;;;;;;;1.10;0.80;;;22.80;79.00;;;;;;5093673;28;20436;-85
2023/05/24 02:57:23;;;;;;;1.20;0.90;;;22.70;78.60;;;;;;5093566;28;20479;-82
2023/05/24 02:59:51;;;;;;;1.50;1.10;;;22.70;78.20;;;;;;5093479;28;20470;-82
2023/05/24 03:02:18;;;;;;;1.00;0.70;;;22.70;78.50;;;;;;5093937;28;20449;-82
2023/05/24 03:04:45;;;;;;;1.10;0.80;;;22.80;78.60;;;;;;5093279;28;20439;-89
2023/05/24 03:07:12;;;;;;;1.10;0.90;;;22.70;78.40;;;;;;5093505;28;20443;-82
2023/05/24 03:09:40;;;;;;;1.10;0.80;;;22.70;78.10;;;;;;5093524;28;20448;-88
2023/05/24 03:12:07;;;;;;;1.00;0.70;;;22.80;78.30;;;;;;5093253;28;20806;-81
2023/05/24 03:14:34;;;;;;;1.23;0.90;;;22.70;78.30;;;;;;5093310;28;20432;-81
2023/05/24 03:17:01;;;;;;;1.10;0.90;;;22.70;78.10;;;;;;5093214;28;20475;-82
2023/05/24 03:19:28;;;;;;;1.20;0.90;;;22.70;78.00;;;;;;5093435;28;20442;-81
2023/05/24 03:21:55;;;;;;;1.17;0.90;;;22.70;78.30;;;;;;5093439;28;20439;-86
2023/05/24 03:24:21;;;;;;;1.10;0.80;;;22.70;78.10;;;;;;5093165;28;20444;-81
2023/05/24 03:26:49;;;;;;;1.50;0.80;;;22.60;78.10;;;;;;5092984;28;20447;-81
2023/05/24 03:29:16;;;;;;;1.47;1.23;;;22.60;78.30;;;;;;5093099;28;20479;-81
2023/05/24 03:31:43;;;;;;;1.20;0.90;;;22.60;77.90;;;;;;5093188;28;20443;-83
2023/05/24 03:34:10;;;;;;;1.60;1.00;;;22.60;78.00;;;;;;5092722;28;20446;-82
2023/05/24 03:36:37;;;;;;;1.10;0.80;;;22.60;77.50;;;;;;5092973;28;20482;-80
2023/05/24 03:39:04;;;;;;;1.30;0.87;;;22.60;77.60;;;;;;5093233;28;20439;-81
2023/05/24 03:41:31;;;;;;;1.27;0.83;;;22.60;77.60;;;;;;5092859;28;20461;-81
2023/05/24 03:43:59;;;;;;;1.10;0.77;;;22.60;77.90;;;;;;5092917;28;20447;-81
2023/05/24 03:46:27;;;;;;;1.00;0.70;;;22.60;77.70;;;;;;5092980;28;20496;-80
2023/05/24 03:48:54;;;;;;;1.63;0.80;;;22.60;77.40;;;;;;5092933;28;20856;-87
2023/05/24 03:51:23;;;;;;;1.20;1.00;;;22.60;77.70;;;;;;5092983;28;20865;-82
2023/05/24 03:53:49;;;;;;;1.70;1.00;;;22.60;77.60;;;;;;5092857;28;20447;-88
2023/05/24 03:56:16;;;;;;;1.10;0.80;;;22.60;77.60;;;;;;5097018;28;20450;-80
2023/05/24 03:58:43;;;;;;;1.20;0.90;;;22.60;77.30;;;;;;5096865;28;20462;-83
2023/05/24 04:01:11;;;;;;;1.50;1.00;;;22.60;77.60;;;;;;5096543;28;20447;-82
2023/05/24 04:03:39;;;;;;;1.13;0.80;;;22.60;77.30;;;;;;5096674;28;20534;-82
2023/05/24 04:06:06;;;;;;;1.57;0.90;;;22.60;77.30;;;;;;5096572;28;20451;-80
2023/05/24 04:08:33;;;;;;;1.20;1.00;;;22.60;77.60;;;;;;5096498;28;20768;-80
2023/05/24 04:11:00;;;;;;;1.20;1.00;;;22.60;77.40;;;;;;5096516;28;20439;-87
2023/05/24 04:13:26;;;;;;;1.10;0.90;;;22.60;77.40;;;;;;5096268;28;20563;-80
2023/05/24 04:15:53;;;;;;;1.30;1.07;;;22.60;77.60;;;;;;5096410;28;20438;-80
2023/05/24 04:18:21;;;;;;;1.40;0.90;;;22.70;77.90;;;;;;5096148;28;20489;-81
2023/05/24 04:20:48;;;;;;;1.10;0.80;;;22.60;77.40;;;;;;5096258;28;20458;-80
2023/05/24 04:23:15;;;;;;;1.20;0.90;;;22.60;77.30;;;;;;5096173;28;20454;-80
2023/05/24 04:25:42;;;;;;;1.37;0.90;;;22.60;77.60;;;;;;5096188;28;20975;-80
2023/05/24 04:28:09;;;;;;;1.83;1.07;;;22.60;77.30;;;;;;5095795;28;20443;-83
2023/05/24 04:30:36;;;;;;;1.30;0.93;;;22.60;77.60;;;;;;5096073;28;20441;-80
2023/05/24 04:33:03;;;;;;;1.30;0.90;;;22.60;77.60;;;;;;5095859;28;20444;-80
2023/05/24 04:35:32;;;;;;;1.40;0.97;;;22.60;78.00;;;;;;5096188;28;20443;-80
2023/05/24 04:37:59;;;;;;;1.77;0.80;;;22.50;77.90;;;;;;5095987;28;20490;-81
2023/05/24 04:40:26;;;;;;;4.00;1.10;;;22.60;78.00;;;;;;5096075;28;20450;-82
2023/05/24 04:42:53;;;;;;;1.30;0.90;;;22.60;73.20;;;;;;5095884;28;20447;-88
2023/05/24 04:45:19;;;;;;;1.20;0.80;;;22.60;72.40;;;;;;5095893;28;20448;-81
2023/05/24 04:47:46;;;;;;;1.00;0.83;;;22.60;72.10;;;;;;5096179;28;20949;-82
2023/05/24 04:50:13;;;;;;;1.17;0.90;;;22.70;72.80;;;;;;5096123;28;20534;-87
2023/05/24 04:52:41;;;;;;;1.10;0.80;;;22.60;72.90;;;;;;5095822;28;20443;-83
2023/05/24 04:55:09;;;;;;;1.20;1.07;;;22.60;72.80;;;;;;5095309;28;20801;-81
2023/05/24 04:57:35;;;;;;;3.57;0.87;;;22.60;72.80;;;;;;5095664;28;20471;-84
2023/05/24 05:00:03;;;;;;;1.13;1.00;;;22.80;73.20;;;;;;5095711;28;20460;-86
2023/05/24 05:02:30;;;;;;;1.50;1.00;;;22.60;72.70;;;;;;5096957;28;20480;-82
2023/05/24 05:04:57;;;;;;;1.20;0.90;;;22.60;72.60;;;;;;5096130;28;20523;-85
2023/05/24 05:07:23;;;;;;;3.10;1.20;;;22.60;72.70;;;;;;5095348;28;20453;-84
2023/05/24 05:09:52;;;;;;;1.20;0.90;;;22.60;72.90;;;;;;5094784;28;20800;-80
2023/05/24 05:12:19;;;;;;;1.40;1.10;;;22.60;72.90;;;;;;5094608;28;20474;-80
2023/05/24 05:14:46;;;;;;;1.10;0.80;;;22.60;73.00;;;;;;5095298;28;20446;-82
2023/05/24 05:17:13;;;;;;;1.17;0.90;;;22.60;73.10;;;;;;5095099;28;20923;-81
2023/05/24 05:19:39;;;;;;;1.10;1.00;;;22.60;72.90;;;;;;5095130;28;20938;-82
2023/05/24 05:22:06;;;;;;;1.70;1.03;;;22.60;72.80;;;;;;5095202;28;20439;-82
2023/05/24 05:24:33;;;;;;;1.00;0.70;;;22.60;73.00;;;;;;5095141;28;20452;-81
2023/05/24 05:27:01;;;;;;;1.20;0.87;;;22.60;73.40;;;;;;5095201;28;20442;-82
2023/05/24 05:29:28;;;;;;;1.10;0.93;;;22.60;73.00;;;;;;5095250;28;20458;-81
2023/05/24 05:31:55;;;;;;;1.10;0.90;;;22.60;73.20;;;;;;5095252;28;20435;-82
2023/05/24 05:34:22;;;;;;;1.30;0.93;;;22.60;73.20;;;;;;5095001;28;20450;-83
2023/05/24 05:36:48;;;;;;;1.10;0.93;;;22.60;73.40;;;;;;5095183;28;20442;-82
2023/05/24 05:39:15;;;;;;;1.10;0.90;;;22.70;73.80;;;;;;5094911;28;20435;-87
2023/05/24 05:41:44;;;;;;;1.20;0.90;;;22.70;73.30;;;;;;5095084;28;20444;-87
2023/05/24 05:44:20;;;;;;;1.20;0.90;;;22.60;73.30;;;;;;5094787;28;20439;-80
2023/05/24 05:46:47;;;;;;;1.10;0.80;;;22.70;73.40;;;;;;5094977;28;20458;-82
2023/05/24 05:49:14;;;;;;;1.70;1.07;;;22.70;73.80;;;;;;5094298;28;20977;-82
2023/05/24 05:51:41;;;;;;;1.37;0.90;;;22.70;73.90;;;;;;5093721;28;20821;-82
2023/05/24 05:54:13;;;;;;;1.10;0.80;;;22.70;73.90;;;;;;5093339;28;20452;-81
2023/05/24 05:56:44;;;;;;;1.30;0.80;;;22.70;74.00;;;;;;5093679;28;20530;-82
2023/05/24 05:59:10;;;;;;;2.07;1.00;;;22.70;73.60;;;;;;5094274;28;20491;-82
2023/05/24 06:01:39;;;;;;;1.90;0.87;;;22.70;73.70;;;;;;5093953;28;20440;-82
2023/05/24 06:04:06;;;;;;;1.30;1.00;;;22.70;73.90;;;;;;5093882;28;20450;-81
2023/05/24 06:06:32;;;;;;;1.20;0.90;;;22.70;73.80;;;;;;5093917;28;20446;-82
2023/05/24 06:08:59;;;;;;;2.20;0.90;;;22.70;73.90;;;;;;5092548;28;20453;-81
2023/05/24 06:11:26;;;;;;;1.10;0.70;;;22.70;74.00;;;;;;5092679;28;20965;-82
2023/05/24 06:13:53;;;;;;;1.17;0.80;;;22.70;73.90;;;;;;5092687;28;20446;-81
2023/05/24 06:16:20;;;;;;;1.20;0.90;;;22.70;74.00;;;;;;5092630;28;20446;-82
2023/05/24 06:18:49;;;;;;;1.93;0.87;;;22.70;74.00;;;;;;5091974;28;20540;-82
2023/05/24 06:21:16;;;;;;;1.93;0.93;;;22.80;73.90;;;;;;5093120;28;20448;-86
2023/05/24 06:23:43;;;;;;;1.43;1.03;;;22.80;73.60;;;;;;5094206;28;20439;-80
2023/05/24 06:26:10;;;;;;;1.20;1.10;;;22.80;74.00;;;;;;5089151;28;20450;-81
2023/05/24 06:28:37;;;;;;;1.97;1.50;;;22.80;73.70;;;;;;5093922;28;20513;-80
2023/05/24 06:31:04;;;;;;;1.40;1.10;;;22.80;74.00;;;;;;5093699;28;20466;-83
2023/05/24 06:33:31;;;;;;;4.00;1.00;;;22.80;73.60;;;;;;5093685;28;20440;-80
2023/05/24 06:35:59;;;;;;;1.30;1.10;;;22.80;73.80;;;;;;5093786;28;20524;-85
2023/05/24 06:38:26;;;;;;;1.17;0.90;;;22.80;74.00;;;;;;5093499;28;21007;-81
2023/05/24 06:40:53;;;;;;;1.50;1.00;;;22.80;74.80;;;;;;5094105;28;20478;-82
2023/05/24 06:43:20;;;;;;;1.20;0.90;;;22.80;73.90;;;;;;5093670;28;20501;-82
2023/05/24 06:45:47;;;;;;;1.30;1.00;;;22.80;73.60;;;;;;5093594;28;20439;-79
2023/05/24 06:48:14;;;;;;;1.87;1.20;;;22.80;73.70;;;;;;5093749;28;20475;-81
2023/05/24 06:50:41;;;;;;;1.53;1.30;;;22.80;73.50;;;;;;5093329;28;20454;-79
2023/05/24 06:53:09;;;;;;;1.10;0.90;;;22.80;73.60;;;;;;5093549;28;20467;-83
2023/05/24 06:55:36;;;;;;;1.50;0.83;;;22.90;73.70;;;;;;5093373;28;20446;-81
2023/05/24 06:58:04;;;;;;;1.87;1.10;;;22.90;73.70;;;;;;5093517;28;20565;-84
2023/05/24 07:00:31;;;;;;;1.10;0.90;;;22.90;73.60;;;;;;5093731;28;20440;-83
2023/05/24 07:02:57;;;;;;;1.40;0.87;;;22.90;73.40;;;;;;5093588;28;20448;-82
2023/05/24 07:05:24;;;;;;;1.10;1.00;;;22.90;73.50;;;;;;5093262;28;20442;-82
2023/05/24 07:07:51;;;;;;;1.17;0.93;;;22.90;73.70;;;;;;5093418;28;20526;-80
2023/05/24 07:10:20;;;;;;;1.20;0.90;;;22.90;74.00;;;;;;5093542;28;20438;-81
2023/05/24 07:12:46;;;;;;;1.13;1.00;;;22.90;74.20;;;;;;5093032;28;20484;-80
2023/05/24 07:15:13;;;;;;;2.30;0.90;;;22.90;74.50;;;;;;5093417;28;20449;-87
2023/05/24 07:17:40;;;;;;;4.60;0.90;;;23.00;74.60;;;;;;5093363;28;20475;-82
2023/05/24 07:20:09;;;;;;;1.10;0.93;;;22.90;74.60;;;;;;5093223;28;20519;-81
2023/05/24 07:22:36;;;;;;;1.47;0.90;;;23.00;74.80;;;;;;5093354;28;20466;-84
2023/05/24 07:25:04;;;;;;;1.20;0.90;;;23.00;74.80;;;;;;5093324;28;20440;-84
2023/05/24 07:27:32;;;;;;;1.60;0.90;;;23.00;74.90;;;;;;5093324;28;20534;-83
2023/05/24 07:29:59;;;;;;;1.20;1.00;;;23.00;74.80;;;;;;5097118;28;20815;-83
2023/05/24 07:32:25;;;;;;;1.50;0.90;;;23.00;74.50;;;;;;5097369;28;20453;-81
2023/05/24 07:34:52;;;;;;;6.23;1.20;;;23.00;74.60;;;;;;5097299;28;20797;-81
2023/05/24 07:37:22;;;;;;;2.53;0.90;;;23.10;75.00;;;;;;5097558;28;20443;-80
2023/05/24 07:39:49;;;;;;;1.20;0.90;;;23.00;75.00;;;;;;5097215;28;20478;-80
2023/05/24 07:42:16;;;;;;;1.77;1.20;;;23.00;74.90;;;;;;5097282;28;20443;-81
2023/05/24 07:44:44;;;;;;;1.67;1.03;;;23.00;75.10;;;;;;5097121;28;20439;-81
2023/05/24 07:47:11;;;;;;;2.30;1.07;;;23.10;75.00;;;;;;5097101;28;20799;-81
2023/05/24 07:49:38;;;;;;;1.10;0.90;;;23.00;74.80;;;;;;5096979;28;20431;-84
2023/05/24 07:52:05;;;;;;;1.30;1.20;;;23.10;75.10;;;;;;5096916;28;20445;-79
2023/05/24 07:54:31;;;;;;;1.10;0.80;;;23.10;75.10;;;;;;5097014;28;20443;-83
2023/05/24 07:56:58;;;;;;;1.10;0.90;;;23.00;74.60;;;;;;5096768;28;20446;-83
2023/05/24 07:59:25;;;;;;;1.60;1.20;;;23.00;74.80;;;;;;5096730;28;20839;-81
2023/05/24 08:01:54;;;;;;;2.13;1.10;;;23.20;74.90;;;;;;5096736;28;20439;-80
2023/05/24 08:04:21;;;;;;;2.80;1.43;;;23.00;74.70;;;;;;5096783;28;20443;-80
2023/05/24 08:06:48;;;;;;;1.30;1.10;;;23.10;74.90;;;;;;5096543;28;20480;-81
2023/05/24 08:09:15;;;;;;;1.50;1.10;;;23.00;74.60;;;;;;5096634;28;20497;-82
2023/05/24 08:11:42;;;;;;;1.40;1.00;;;23.00;74.80;;;;;;5096323;28;20879;-84
2023/05/24 08:14:08;;;;;;;1.30;0.90;;;23.00;74.70;;;;;;5096584;28;20970;-83
2023/05/24 08:16:35;;;;;;;1.83;1.00;;;23.00;74.70;;;;;;5096364;28;20443;-80
2023/05/24 08:19:03;;;;;;;1.30;1.13;;;23.00;74.90;;;;;;5096484;28;21014;-81
2023/05/24 08:21:30;;;;;;;2.90;1.10;;;23.00;74.90;;;;;;5096430;28;20439;-80
2023/05/24 08:23:58;;;;;;;1.37;1.00;;;23.00;75.00;;;;;;5096495;28;20435;-84
2023/05/24 08:26:25;;;;;;;2.07;1.10;;;23.00;74.90;;;;;;5096558;28;20455;-81
2023/05/24 08:28:52;;;;;;;1.40;1.10;;;23.10;75.10;;;;;;5096259;28;20467;-81
2023/05/24 08:31:19;;;;;;;1.30;0.93;;;23.00;75.10;;;;;;5096342;28;20443;-80
2023/05/24 08:33:49;;;;;;;1.40;1.10;;;23.00;74.90;;;;;;5096228;28;20446;-82
2023/05/24 08:36:17;;;;;;;1.33;1.03;;;23.00;75.10;;;;;;5096168;28;20479;-85
2023/05/24 08:38:44;;;;;;;2.10;1.60;;;23.00;75.10;;;;;;5096263;28;20491;-83
2023/05/24 08:41:11;;;;;;;1.50;0.90;;;23.00;75.00;;;;;;5095518;28;20435;-83
2023/05/24 08:43:38;;;;;;;1.23;0.90;;;23.00;75.10;;;;;;5096086;28;20451;-83
2023/05/24 08:46:06;;;;;;;1.70;1.30;;;23.00;75.20;;;;;;5096076;28;20438;-84
2023/05/24 08:48:41;;;;;;;1.53;1.10;;;23.00;75.40;;;;;;5096107;28;20802;-81
2023/05/24 08:51:08;;;;;;;1.20;1.00;;;23.00;75.20;;;;;;5095857;28;20798;-80
2023/05/24 08:53:38;;;;;;;1.20;0.90;;;23.00;75.30;;;;;;5095632;28;20454;-83
2023/05/24 08:56:07;;;;;;;1.37;1.20;;;23.00;75.10;;;;;;5095731;28;20454;-80
2023/05/24 08:58:34;;;;;;;3.10;1.23;;;23.00;75.30;;;;;;5095598;28;20479;-82
2023/05/24 09:01:02;;;;;;;1.30;1.00;;;23.20;75.30;;;;;;5095812;28;20444;-81
2023/05/24 09:03:29;;;;;;;1.80;1.13;;;23.00;75.30;;;;;;5095703;28;20485;-80
2023/05/24 09:05:56;;;;;;;3.10;1.10;;;23.00;75.10;;;;;;5095431;28;20569;-80
2023/05/24 09:08:24;;;;;;;1.30;1.00;;;23.10;75.40;;;;;;5095386;28;20435;-81
2023/05/24 09:10:52;;;;;;;1.30;1.07;;;23.10;75.20;;;;;;5095570;28;20925;-83
2023/05/24 09:13:19;;;;;;;1.20;1.00;;;23.10;75.30;;;;;;5095297;28;20471;-82
2023/05/24 09:15:46;;;;;;;1.50;1.00;;;23.10;75.20;;;;;;5095292;28;20443;-81
2023/05/24 09:18:13;;;;;;;1.40;1.10;;;23.10;75.20;;;;;;5095002;28;20448;-81
2023/05/24 09:20:40;;;;;;;1.37;1.00;;;23.10;75.20;;;;;;5095106;28;20783;-80
2023/05/24 09:23:07;;;;;;;1.27;1.10;;;23.00;75.00;;;;;;5095317;28;20436;-81
2023/05/24 09:25:34;;;;;;;1.07;0.80;;;23.10;75.20;;;;;;5095322;28;20855;-82
2023/05/24 09:28:07;;;;;;;2.87;1.60;;;23.10;75.10;;;;;;5095037;28;20472;-81
2023/05/24 09:30:34;;;;;;;2.07;1.17;;;23.10;75.20;;;;;;5095052;28;20447;-82
2023/05/24 09:33:02;;;;;;;1.30;1.00;;;23.00;75.00;;;;;;5095182;28;20999;-80
2023/05/24 09:35:30;;;;;;;1.83;1.10;;;23.10;75.20;;;;;;5095090;28;20489;-82
2023/05/24 09:37:58;;;;;;;1.50;1.00;;;23.00;75.00;;;;;;5094631;28;20447;-81
2023/05/24 09:40:25;;;;;;;1.20;1.00;;;23.00;75.20;;;;;;5094737;28;20480;-81
2023/05/24 09:43:06;;;;;;;1.80;1.10;;;23.00;75.20;;;;;;5094850;28;20541;-81
2023/05/24 09:45:33;;;;;;;1.60;1.23;;;23.10;75.20;;;;;;5094755;28;20444;-82
2023/05/24 09:47:59;;;;;;;1.20;1.07;;;23.00;75.20;;;;;;5094692;28;20497;-82
2023/05/24 09:50:27;;;;;;;1.20;1.00;;;23.10;75.20;;;;;;5094586;28;20432;-83
2023/05/24 09:52:55;;;;;;;1.67;1.20;;;23.00;75.20;;;;;;5093695;28;21066;-83
2023/05/24 09:55:22;;;;;;;1.63;1.40;;;23.10;76.10;;;;;;5094840;28;20435;-83
2023/05/24 09:57:51;;;;;;;1.73;1.20;;;23.10;75.10;;;;;;5094112;28;20469;-81
2023/05/24 10:00:24;;;;;;;1.77;1.30;;;23.10;75.10;;;;;;5094377;28;20486;-84
2023/05/24 10:03:01;;;;;;;1.20;0.90;;;23.10;75.20;;;;;;5094830;28;20424;-82
2023/05/24 10:05:29;;;;;;;1.30;1.00;;;23.10;75.30;;;;;;5094302;28;20439;-83
2023/05/24 10:07:56;;;;;;;1.90;1.20;;;23.10;75.40;;;;;;5094415;28;20447;-81
2023/05/24 10:10:23;;;;;;;1.10;0.90;;;23.10;75.50;;;;;;5094266;28;20493;-80
2023/05/24 10:12:51;;;;;;;1.50;1.00;;;23.10;75.30;;;;;;5094090;28;20981;-82
2023/05/24 10:15:18;;;;;;;1.50;1.00;;;23.10;75.40;;;;;;5094300;28;20447;-80
2023/05/24 10:17:46;;;;;;;2.43;1.40;;;23.10;75.40;;;;;;5094146;28;20471;-83
2023/05/24 10:20:14;;;;;;;2.10;1.17;;;23.10;75.30;;;;;;5094109;28;20494;-83
2023/05/24 10:22:45;;;;;;;1.40;1.23;;;23.10;75.40;;;;;;5094242;28;20443;-84
2023/05/24 10:25:17;;;;;;;1.80;1.40;;;23.10;75.30;;;;;;5094000;28;20487;-84
2023/05/24 10:27:45;;;;;;;2.10;1.30;;;23.10;75.50;;;;;;5094146;28;20473;-84
2023/05/24 10:30:16;;;;;;;1.70;1.00;;;23.10;75.40;;;;;;5094014;28;20451;-84
2023/05/24 10:32:47;;;;;;;1.90;1.13;;;23.10;75.50;;;;;;5094307;28;20439;-84
2023/05/24 10:35:17;;;;;;;1.43;1.00;;;23.10;75.40;;;;;;5094202;28;20442;-84
2023/05/24 10:37:46;;;;;;;1.30;1.10;;;23.10;75.50;;;;;;5094069;28;21010;-83
2023/05/24 10:40:19;;;;;;;1.93;1.10;;;23.10;75.60;;;;;;5093749;28;20482;-83
2023/05/24 10:42:47;;;;;;;1.83;1.40;;;23.10;75.50;;;;;;5094285;28;20442;-84
2023/05/24 10:45:31;;;;;;;2.03;1.17;;;23.10;75.50;;;;;;5093712;28;20447;-83
2023/05/24 10:48:07;;;;;;;1.73;1.27;;;23.10;75.60;;;;;;5093816;28;20447;-85
2023/05/24 10:50:34;;;;;;;1.37;1.23;;;23.10;75.60;;;;;;5093905;28;20481;-84
2023/05/24 10:53:12;;;;;;;1.93;1.50;;;23.10;75.20;;;;;;5093743;28;20483;-83
2023/05/24 10:55:52;;;;;;;1.33;1.13;;;23.20;75.20;;;;;;5093794;28;20435;-83
2023/05/24 10:58:19;;;;;;;1.40;1.30;;;23.20;75.40;;;;;;5093626;28;20815;-84
2023/05/24 11:00:47;;;;;;;1.30;1.00;;;23.10;75.40;;;;;;5093259;28;20489;-83
2023/05/24 11:03:22;;;;;;;1.90;1.20;;;23.20;75.40;;;;;;5093300;28;20448;-83
2023/05/24 11:05:51;;;;;;;1.50;1.20;;;23.20;75.50;;;;;;5093591;28;20443;-84
2023/05/24 11:08:24;;;;;;;1.40;1.20;;;23.10;75.30;;;;;;5093507;28;20559;-81
2023/05/24 11:10:51;;;;;;;1.50;1.17;;;23.10;75.20;;;;;;5093311;28;20447;-84
2023/05/24 11:13:19;;;;;;;1.47;1.10;;;23.10;75.40;;;;;;5093188;28;20500;-84
2023/05/24 11:15:51;;;;;;;1.90;1.00;;;23.10;75.50;;;;;;5093610;28;20526;-83
2023/05/24 11:18:23;;;;;;;2.43;1.17;;;23.10;75.60;;;;;;5093482;28;20441;-83
2023/05/24 11:20:50;;;;;;;1.83;1.20;;;23.10;75.40;;;;;;5092943;28;20483;-82
2023/05/24 11:23:17;;;;;;;2.13;1.23;;;23.10;75.40;;;;;;5093506;28;20442;-84
2023/05/24 11:25:46;;;;;;;1.30;0.93;;;23.10;75.60;;;;;;5093226;28;20513;-82
2023/05/24 11:28:13;;;;;;;2.37;1.10;;;23.10;75.60;;;;;;5093395;28;20462;-85
2023/05/24 11:30:40;;;;;;;1.30;1.20;;;23.10;75.60;;;;;;5093241;28;20466;-83
2023/05/24 11:33:14;;;;;;;3.00;1.40;;;23.10;75.40;;;;;;5093562;28;20930;-82
2023/05/24 11:35:43;;;;;;;1.30;1.00;;;23.10;75.50;;;;;;5093348;28;20941;-82
2023/05/24 11:38:12;;;;;;;1.40;1.10;;;23.10;75.60;;;;;;5093289;28;20443;-84
2023/05/24 11:40:43;;;;;;;1.80;1.07;;;23.10;75.40;;;;;;5093008;28;20479;-83
2023/05/24 11:43:14;;;;;;;1.30;1.10;;;23.30;75.60;;;;;;5093191;28;20435;-82
2023/05/24 11:45:42;;;;;;;1.50;1.30;;;23.10;75.50;;;;;;5092887;28;20489;-81
2023/05/24 11:48:09;;;;;;;1.30;1.10;;;23.10;75.50;;;;;;5092262;28;20505;-82
2023/05/24 11:50:40;;;;;;;1.40;1.30;;;23.10;75.40;;;;;;5092543;28;20914;-81
2023/05/24 11:53:11;;;;;;;1.50;1.10;;;23.20;75.70;;;;;;5091697;28;20497;-80
2023/05/24 11:55:39;;;;;;;1.43;1.07;;;23.10;75.70;;;;;;5092699;28;20440;-82
2023/05/24 11:58:10;;;;;;;1.37;1.17;;;23.10;75.80;;;;;;5092986;28;20468;-80
2023/05/24 12:00:37;;;;;;;1.40;1.30;;;23.10;75.50;;;;;;5091288;28;20479;-80
2023/05/24 12:03:07;;;;;;;1.70;1.43;;;23.10;75.60;;;;;;5092352;28;20978;-81
2023/05/24 12:05:35;;;;;;;1.20;0.90;;;23.10;75.70;;;;;;5092614;28;20445;-81
2023/05/24 12:08:04;;;;;;;1.40;1.10;;;23.00;75.50;;;;;;5092855;28;20837;-81
2023/05/24 12:10:33;;;;;;;1.37;1.13;;;23.10;75.70;;;;;;5092853;28;20507;-82
2023/05/24 12:13:00;;;;;;;1.40;1.03;;;23.00;75.50;;;;;;5092687;28;20485;-83
2023/05/24 12:15:27;;;;;;;1.60;1.10;;;23.10;75.70;;;;;;5093814;28;20439;-81
2023/05/24 12:17:54;;;;;;;2.10;1.20;;;23.10;75.70;;;;;;5096571;28;20442;-83
2023/05/24 12:20:21;;;;;;;1.33;1.00;;;23.10;75.70;;;;;;5096068;28;20478;-82
2023/05/24 12:22:50;;;;;;;1.53;1.10;;;23.10;75.70;;;;;;5096306;28;20439;-83
2023/05/24 12:25:20;;;;;;;1.20;1.00;;;23.10;75.70;;;;;;5096146;28;20810;-81
2023/05/24 12:27:52;;;;;;;1.20;0.97;;;23.20;75.80;;;;;;5096016;28;20488;-82
2023/05/24 12:30:22;;;;;;;9.30;1.97;;;23.10;75.60;;;;;;5095562;28;20869;-83
2023/05/24 12:32:50;;;;;;;3.00;1.80;;;23.10;73.20;;;;;;5095734;28;20431;-80
2023/05/24 12:35:18;;;;;;;4.13;1.63;;;23.00;73.40;;;;;;5096265;28;20428;-81
2023/05/24 12:37:45;;;;;;;3.60;1.60;;;23.00;75.10;;;;;;5095874;28;21002;-82
2023/05/24 12:40:19;;;;;;;1.90;1.10;;;23.00;75.20;;;;;;5094862;28;20577;-89
2023/05/24 12:42:48;;;;;;;2.47;1.50;;;23.10;75.40;;;;;;5096509;28;20447;-81
2023/05/24 12:48:40;;;;;;;3.90;1.20;;;23.10;75.40;;;;;;5092403;28;21363;-83
2023/05/24 12:51:08;;;;;;;4.53;1.63;;;23.10;75.40;;;;;;5095905;28;20783;-86
2023/05/24 12:53:35;;;;;;;2.33;1.30;;;23.00;75.50;;;;;;5096352;28;20443;-87
2023/05/24 12:56:02;;;;;;;6.30;1.20;;;23.10;75.70;;;;;;5096287;28;20514;-87